sensor_id;sensor_type;location;lat;lon;timestamp;pressure;altitude;pressure_sealevel;temperature;humidity
58223;BME280;44020;50.890;15.796;2023-04-03T00:01:53;98478.17;;;1.30;71.52
58223;BME280;44020;50.890;15.796;2023-04-03T00:04:20;98480.65;;;1.30;71.51
58223;BME280;44020;50.890;15.796;2023-04-03T00:06:47;98479.46;;;1.27;71.07
58223;BME280;44020;50.890;15.796;2023-04-03T00:09:15;98481.40;;;1.27;71.14
58223;BME280;44020;50.890;15.796;2023-04-03T00:11:42;98487.65;;;1.30;71.12
58223;BME280;44020;50.890;15.796;2023-04-03T00:14:10;98486.39;;;1.32;70.89
58223;BME280;44020;50.890;15.796;2023-04-03T00:16:37;98489.51;;;1.33;71.13
58223;BME280;44020;50.890;15.796;2023-04-03T00:19:05;98489.38;;;1.31;70.80
58223;BME280;44020;50.890;15.796;2023-04-03T00:21:32;98492.57;;;1.28;70.89
58223;BME280;44020;50.890;15.796;2023-04-03T00:24:00;98489.79;;;1.28;71.03
58223;BME280;44020;50.890;15.796;2023-04-03T00:26:27;98490.44;;;1.31;70.61
58223;BME280;44020;50.890;15.796;2023-04-03T00:28:55;98497.60;;;1.31;70.59
58223;BME280;44020;50.890;15.796;2023-04-03T00:31:23;98496.15;;;1.25;70.55
58223;BME280;44020;50.890;15.796;2023-04-03T00:33:50;98496.67;;;1.25;70.78
58223;BME280;44020;50.890;15.796;2023-04-03T00:36:18;98495.85;;;1.22;70.24
58223;BME280;44020;50.890;15.796;2023-04-03T00:38:46;98495.27;;;1.25;70.32
58223;BME280;44020;50.890;15.796;2023-04-03T00:41:14;98496.64;;;1.26;70.30
58223;BME280;44020;50.890;15.796;2023-04-03T00:43:41;98500.45;;;1.28;70.33
58223;BME280;44020;50.890;15.796;2023-04-03T00:46:09;98503.66;;;1.25;70.43
58223;BME280;44020;50.890;15.796;2023-04-03T00:51:04;98505.44;;;1.15;70.20
58223;BME280;44020;50.890;15.796;2023-04-03T00:53:37;98502.82;;;1.15;69.63
58223;BME280;44020;50.890;15.796;2023-04-03T00:56:06;98501.36;;;1.09;69.38
58223;BME280;44020;50.890;15.796;2023-04-03T00:59:38;98505.26;;;1.07;69.55
58223;BME280;44020;50.890;15.796;2023-04-03T01:01:32;98502.08;;;1.08;69.54
58223;BME280;44020;50.890;15.796;2023-04-03T01:04:00;98499.66;;;1.07;69.71
58223;BME280;44020;50.890;15.796;2023-04-03T01:06:30;98501.90;;;1.08;69.68
58223;BME280;44020;50.890;15.796;2023-04-03T01:08:59;98501.98;;;1.05;69.42
58223;BME280;44020;50.890;15.796;2023-04-03T01:11:27;98501.13;;;1.03;69.51
58223;BME280;44020;50.890;15.796;2023-04-03T01:13:55;98503.84;;;0.98;69.48
58223;BME280;44020;50.890;15.796;2023-04-03T01:16:22;98505.17;;;0.92;69.35
58223;BME280;44020;50.890;15.796;2023-04-03T01:18:49;98501.37;;;0.90;69.21
58223;BME280;44020;50.890;15.796;2023-04-03T01:26:40;98506.74;;;0.93;69.51
58223;BME280;44020;50.890;15.796;2023-04-03T01:29:08;98502.25;;;0.90;69.12
58223;BME280;44020;50.890;15.796;2023-04-03T01:31:52;98504.67;;;0.91;69.46
58223;BME280;44020;50.890;15.796;2023-04-03T01:34:20;98508.88;;;0.91;69.37
58223;BME280;44020;50.890;15.796;2023-04-03T01:36:48;98504.38;;;0.88;69.15
58223;BME280;44020;50.890;15.796;2023-04-03T01:39:15;98506.39;;;0.83;69.15
58223;BME280;44020;50.890;15.796;2023-04-03T01:41:43;98510.18;;;0.77;68.92
58223;BME280;44020;50.890;15.796;2023-04-03T01:44:10;98512.73;;;0.71;69.38
58223;BME280;44020;50.890;15.796;2023-04-03T01:46:38;98513.09;;;0.70;69.45
58223;BME280;44020;50.890;15.796;2023-04-03T01:49:06;98513.16;;;0.68;69.07
58223;BME280;44020;50.890;15.796;2023-04-03T01:51:33;98515.98;;;0.65;69.40
58223;BME280;44020;50.890;15.796;2023-04-03T01:54:02;98510.84;;;0.60;69.31
58223;BME280;44020;50.890;15.796;2023-04-03T01:56:30;98512.66;;;0.55;69.38
58223;BME280;44020;50.890;15.796;2023-04-03T01:58:57;98509.89;;;0.53;69.37
58223;BME280;44020;50.890;15.796;2023-04-03T02:01:25;98519.70;;;0.52;69.37
58223;BME280;44020;50.890;15.796;2023-04-03T02:03:53;98522.02;;;0.50;69.71
58223;BME280;44020;50.890;15.796;2023-04-03T02:06:21;98520.66;;;0.47;69.53
58223;BME280;44020;50.890;15.796;2023-04-03T02:08:48;98521.90;;;0.46;69.73
58223;BME280;44020;50.890;15.796;2023-04-03T02:11:16;98521.20;;;0.46;69.60
58223;BME280;44020;50.890;15.796;2023-04-03T02:13:44;98521.03;;;0.46;69.50
58223;BME280;44020;50.890;15.796;2023-04-03T02:16:11;98521.95;;;0.43;69.47
58223;BME280;44020;50.890;15.796;2023-04-03T02:18:40;98520.00;;;0.45;69.46
58223;BME280;44020;50.890;15.796;2023-04-03T02:21:07;98523.86;;;0.44;69.50
58223;BME280;44020;50.890;15.796;2023-04-03T02:23:35;98520.23;;;0.41;69.55
58223;BME280;44020;50.890;15.796;2023-04-03T02:26:04;98525.29;;;0.42;69.60
58223;BME280;44020;50.890;15.796;2023-04-03T02:28:33;98516.14;;;0.46;69.76
58223;BME280;44020;50.890;15.796;2023-04-03T02:31:01;98519.27;;;0.46;69.61
58223;BME280;44020;50.890;15.796;2023-04-03T02:33:29;98522.85;;;0.42;69.49
58223;BME280;44020;50.890;15.796;2023-04-03T02:35:57;98526.17;;;0.41;69.43
58223;BME280;44020;50.890;15.796;2023-04-03T02:38:25;98528.13;;;0.40;69.35
58223;BME280;44020;50.890;15.796;2023-04-03T02:40:52;98528.00;;;0.37;69.41
58223;BME280;44020;50.890;15.796;2023-04-03T02:43:20;98529.46;;;0.34;69.42
58223;BME280;44020;50.890;15.796;2023-04-03T02:45:47;98526.15;;;0.32;69.62
58223;BME280;44020;50.890;15.796;2023-04-03T02:48:14;98526.84;;;0.33;69.62
58223;BME280;44020;50.890;15.796;2023-04-03T02:50:43;98524.82;;;0.28;69.49
58223;BME280;44020;50.890;15.796;2023-04-03T02:53:10;98526.96;;;0.25;69.79
58223;BME280;44020;50.890;15.796;2023-04-03T02:55:38;98523.29;;;0.25;69.64
58223;BME280;44020;50.890;15.796;2023-04-03T02:58:05;98526.30;;;0.23;69.72
58223;BME280;44020;50.890;15.796;2023-04-03T03:00:33;98526.85;;;0.21;69.84
58223;BME280;44020;50.890;15.796;2023-04-03T03:03:00;98523.23;;;0.17;69.91
58223;BME280;44020;50.890;15.796;2023-04-03T03:05:28;98528.06;;;0.21;70.28
58223;BME280;44020;50.890;15.796;2023-04-03T03:07:55;98522.25;;;0.24;70.07
58223;BME280;44020;50.890;15.796;2023-04-03T03:10:23;98527.49;;;0.25;69.97
58223;BME280;44020;50.890;15.796;2023-04-03T03:12:51;98531.05;;;0.20;70.06
58223;BME280;44020;50.890;15.796;2023-04-03T03:15:18;98533.89;;;0.17;70.09
58223;BME280;44020;50.890;15.796;2023-04-03T03:17:46;98535.09;;;0.18;70.15
58223;BME280;44020;50.890;15.796;2023-04-03T03:20:14;98536.19;;;0.16;70.45
58223;BME280;44020;50.890;15.796;2023-04-03T03:22:42;98535.52;;;0.13;70.37
58223;BME280;44020;50.890;15.796;2023-04-03T03:25:09;98541.89;;;0.09;70.41
58223;BME280;44020;50.890;15.796;2023-04-03T03:27:37;98538.64;;;0.04;70.65
58223;BME280;44020;50.890;15.796;2023-04-03T03:30:05;98540.52;;;0.06;70.59
58223;BME280;44020;50.890;15.796;2023-04-03T03:32:33;98539.48;;;0.07;70.76
58223;BME280;44020;50.890;15.796;2023-04-03T03:35:01;98540.50;;;0.08;70.79
58223;BME280;44020;50.890;15.796;2023-04-03T03:37:28;98538.19;;;0.12;70.93
58223;BME280;44020;50.890;15.796;2023-04-03T03:39:56;98540.63;;;0.11;70.76
58223;BME280;44020;50.890;15.796;2023-04-03T03:42:24;98538.31;;;0.13;70.89
58223;BME280;44020;50.890;15.796;2023-04-03T03:44:51;98545.17;;;0.11;70.54
58223;BME280;44020;50.890;15.796;2023-04-03T03:47:19;98547.19;;;0.05;70.68
58223;BME280;44020;50.890;15.796;2023-04-03T03:49:47;98547.62;;;-0.01;70.92
58223;BME280;44020;50.890;15.796;2023-04-03T03:52:14;98544.16;;;-0.04;70.88
58223;BME280;44020;50.890;15.796;2023-04-03T03:54:42;98545.42;;;-0.07;70.96
58223;BME280;44020;50.890;15.796;2023-04-03T03:57:09;98544.03;;;-0.06;71.02
58223;BME280;44020;50.890;15.796;2023-04-03T03:59:37;98548.21;;;-0.07;71.08
58223;BME280;44020;50.890;15.796;2023-04-03T04:02:05;98545.84;;;-0.11;71.09
58223;BME280;44020;50.890;15.796;2023-04-03T04:04:33;98545.88;;;-0.14;71.10
58223;BME280;44020;50.890;15.796;2023-04-03T04:07:00;98546.06;;;-0.15;71.27
58223;BME280;44020;50.890;15.796;2023-04-03T04:09:28;98547.68;;;-0.18;71.43
58223;BME280;44020;50.890;15.796;2023-04-03T04:11:55;98551.54;;;-0.18;71.08
58223;BME280;44020;50.890;15.796;2023-04-03T04:14:23;98549.09;;;-0.19;71.33
58223;BME280;44020;50.890;15.796;2023-04-03T04:16:50;98551.88;;;-0.18;71.31
58223;BME280;44020;50.890;15.796;2023-04-03T04:19:18;98553.11;;;-0.19;71.43
58223;BME280;44020;50.890;15.796;2023-04-03T04:21:45;98556.27;;;-0.20;71.36
58223;BME280;44020;50.890;15.796;2023-04-03T04:24:12;98557.00;;;-0.23;71.23
58223;BME280;44020;50.890;15.796;2023-04-03T04:26:40;98558.98;;;-0.28;71.43
58223;BME280;44020;50.890;15.796;2023-04-03T04:29:08;98559.77;;;-0.34;71.30
58223;BME280;44020;50.890;15.796;2023-04-03T04:31:36;98563.70;;;-0.42;71.66
58223;BME280;44020;50.890;15.796;2023-04-03T04:34:03;98563.42;;;-0.47;71.70
58223;BME280;44020;50.890;15.796;2023-04-03T04:36:31;98564.69;;;-0.50;71.94
58223;BME280;44020;50.890;15.796;2023-04-03T04:38:59;98569.47;;;-0.56;72.10
58223;BME280;44020;50.890;15.796;2023-04-03T04:41:26;98574.08;;;-0.62;72.27
58223;BME280;44020;50.890;15.796;2023-04-03T04:43:53;98576.70;;;-0.63;72.41
58223;BME280;44020;50.890;15.796;2023-04-03T04:46:21;98577.79;;;-0.67;72.63
58223;BME280;44020;50.890;15.796;2023-04-03T04:48:49;98583.20;;;-0.67;72.64
58223;BME280;44020;50.890;15.796;2023-04-03T04:51:17;98585.83;;;-0.69;72.70
58223;BME280;44020;50.890;15.796;2023-04-03T04:53:44;98587.09;;;-0.71;72.77
58223;BME280;44020;50.890;15.796;2023-04-03T04:56:12;98590.94;;;-0.73;72.93
58223;BME280;44020;50.890;15.796;2023-04-03T04:58:40;98594.41;;;-0.70;73.10
58223;BME280;44020;50.890;15.796;2023-04-03T05:01:08;98595.16;;;-0.75;73.02
58223;BME280;44020;50.890;15.796;2023-04-03T05:03:35;98596.36;;;-0.73;73.16
58223;BME280;44020;50.890;15.796;2023-04-03T05:06:03;98598.97;;;-0.73;73.10
58223;BME280;44020;50.890;15.796;2023-04-03T05:08:31;98598.84;;;-0.78;73.28
58223;BME280;44020;50.890;15.796;2023-04-03T05:10:59;98599.21;;;-0.79;73.28
58223;BME280;44020;50.890;15.796;2023-04-03T05:13:27;98599.21;;;-0.79;73.47
58223;BME280;44020;50.890;15.796;2023-04-03T05:15:54;98605.33;;;-0.79;73.43
58223;BME280;44020;50.890;15.796;2023-04-03T05:18:22;98601.66;;;-0.81;73.49
58223;BME280;44020;50.890;15.796;2023-04-03T05:20:49;98608.64;;;-0.79;73.66
58223;BME280;44020;50.890;15.796;2023-04-03T05:23:17;98609.30;;;-0.77;73.83
58223;BME280;44020;50.890;15.796;2023-04-03T05:25:45;98608.94;;;-0.74;73.54
58223;BME280;44020;50.890;15.796;2023-04-03T05:28:13;98613.13;;;-0.76;73.51
58223;BME280;44020;50.890;15.796;2023-04-03T05:30:41;98610.36;;;-0.77;73.80
58223;BME280;44020;50.890;15.796;2023-04-03T05:33:08;98609.46;;;-0.74;73.73
58223;BME280;44020;50.890;15.796;2023-04-03T05:35:36;98608.41;;;-0.74;73.74
58223;BME280;44020;50.890;15.796;2023-04-03T05:38:05;98608.08;;;-0.76;73.80
58223;BME280;44020;50.890;15.796;2023-04-03T05:40:33;98609.00;;;-0.82;73.83
58223;BME280;44020;50.890;15.796;2023-04-03T05:43:00;98612.14;;;-0.82;74.02
58223;BME280;44020;50.890;15.796;2023-04-03T05:45:28;98618.23;;;-0.80;74.14
58223;BME280;44020;50.890;15.796;2023-04-03T05:47:55;98618.05;;;-0.79;74.01
58223;BME280;44020;50.890;15.796;2023-04-03T05:50:22;98621.53;;;-0.79;74.06
58223;BME280;44020;50.890;15.796;2023-04-03T05:52:50;98621.69;;;-0.76;74.10
58223;BME280;44020;50.890;15.796;2023-04-03T05:55:19;98625.50;;;-0.74;74.18
58223;BME280;44020;50.890;15.796;2023-04-03T05:57:46;98628.60;;;-0.70;73.97
58223;BME280;44020;50.890;15.796;2023-04-03T06:00:14;98631.77;;;-0.73;73.98
58223;BME280;44020;50.890;15.796;2023-04-03T06:02:42;98632.12;;;-0.73;73.92
58223;BME280;44020;50.890;15.796;2023-04-03T06:05:10;98638.08;;;-0.76;74.02
58223;BME280;44020;50.890;15.796;2023-04-03T06:07:39;98640.71;;;-0.77;74.12
58223;BME280;44020;50.890;15.796;2023-04-03T06:10:07;98641.03;;;-0.75;74.21
58223;BME280;44020;50.890;15.796;2023-04-03T06:12:35;98647.44;;;-0.69;74.30
58223;BME280;44020;50.890;15.796;2023-04-03T06:15:03;98642.13;;;-0.63;74.38
58223;BME280;44020;50.890;15.796;2023-04-03T06:17:30;98639.45;;;-0.56;74.24
58223;BME280;44020;50.890;15.796;2023-04-03T06:19:58;98643.60;;;-0.52;74.11
58223;BME280;44020;50.890;15.796;2023-04-03T06:22:25;98643.77;;;-0.51;74.06
58223;BME280;44020;50.890;15.796;2023-04-03T06:24:53;98642.59;;;-0.56;73.84
58223;BME280;44020;50.890;15.796;2023-04-03T06:27:20;98642.61;;;-0.57;74.06
58223;BME280;44020;50.890;15.796;2023-04-03T06:29:48;98641.52;;;-0.54;73.96
58223;BME280;44020;50.890;15.796;2023-04-03T06:32:16;98642.20;;;-0.53;73.93
58223;BME280;44020;50.890;15.796;2023-04-03T06:34:43;98647.58;;;-0.50;74.00
58223;BME280;44020;50.890;15.796;2023-04-03T06:37:17;98651.23;;;-0.49;73.63
58223;BME280;44020;50.890;15.796;2023-04-03T06:39:45;98648.84;;;-0.51;73.65
58223;BME280;44020;50.890;15.796;2023-04-03T06:42:12;98651.77;;;-0.50;73.70
58223;BME280;44020;50.890;15.796;2023-04-03T06:44:39;98654.76;;;-0.51;73.78
58223;BME280;44020;50.890;15.796;2023-04-03T06:47:08;98658.53;;;-0.46;73.82
58223;BME280;44020;50.890;15.796;2023-04-03T06:49:36;98661.67;;;-0.45;73.73
58223;BME280;44020;50.890;15.796;2023-04-03T06:52:04;98660.84;;;-0.48;73.69
58223;BME280;44020;50.890;15.796;2023-04-03T06:54:32;98666.42;;;-0.49;73.72
58223;BME280;44020;50.890;15.796;2023-04-03T06:57:00;98668.70;;;-0.49;73.74
58223;BME280;44020;50.890;15.796;2023-04-03T06:59:28;98668.85;;;-0.46;74.10
58223;BME280;44020;50.890;15.796;2023-04-03T07:01:56;98673.33;;;-0.42;73.92
58223;BME280;44020;50.890;15.796;2023-04-03T07:04:23;98672.79;;;-0.39;73.91
58223;BME280;44020;50.890;15.796;2023-04-03T07:06:51;98674.52;;;-0.39;73.70
58223;BME280;44020;50.890;15.796;2023-04-03T07:09:19;98675.42;;;-0.42;73.67
58223;BME280;44020;50.890;15.796;2023-04-03T07:11:48;98682.77;;;-0.43;73.85
58223;BME280;44020;50.890;15.796;2023-04-03T07:14:15;98687.63;;;-0.40;73.90
58223;BME280;44020;50.890;15.796;2023-04-03T07:16:42;98688.33;;;-0.39;73.74
58223;BME280;44020;50.890;15.796;2023-04-03T07:19:09;98695.14;;;-0.41;73.59
58223;BME280;44020;50.890;15.796;2023-04-03T07:21:36;98695.65;;;-0.38;73.68
58223;BME280;44020;50.890;15.796;2023-04-03T07:24:04;98689.34;;;-0.36;73.46
58223;BME280;44020;50.890;15.796;2023-04-03T07:26:31;98697.30;;;-0.30;73.71
58223;BME280;44020;50.890;15.796;2023-04-03T07:28:59;98693.90;;;-0.23;73.34
58223;BME280;44020;50.890;15.796;2023-04-03T07:31:27;98697.17;;;-0.18;73.57
58223;BME280;44020;50.890;15.796;2023-04-03T07:33:54;98694.30;;;-0.12;73.20
58223;BME280;44020;50.890;15.796;2023-04-03T07:36:22;98699.51;;;-0.08;72.95
58223;BME280;44020;50.890;15.796;2023-04-03T07:38:50;98691.41;;;-0.04;72.90
58223;BME280;44020;50.890;15.796;2023-04-03T07:41:18;98695.86;;;0.04;73.11
58223;BME280;44020;50.890;15.796;2023-04-03T07:43:45;98694.52;;;0.14;73.10
58223;BME280;44020;50.890;15.796;2023-04-03T07:46:13;98700.04;;;0.20;72.82
58223;BME280;44020;50.890;15.796;2023-04-03T07:48:40;98697.73;;;0.23;72.55
58223;BME280;44020;50.890;15.796;2023-04-03T07:51:07;98696.80;;;0.27;72.33
58223;BME280;44020;50.890;15.796;2023-04-03T07:53:35;98696.23;;;0.30;72.17
58223;BME280;44020;50.890;15.796;2023-04-03T07:56:02;98695.72;;;0.30;71.76
58223;BME280;44020;50.890;15.796;2023-04-03T07:58:30;98694.12;;;0.32;71.95
58223;BME280;44020;50.890;15.796;2023-04-03T08:00:57;98695.80;;;0.37;71.51
58223;BME280;44020;50.890;15.796;2023-04-03T08:03:24;98697.65;;;0.42;71.42
58223;BME280;44020;50.890;15.796;2023-04-03T08:05:52;98695.89;;;0.54;71.63
58223;BME280;44020;50.890;15.796;2023-04-03T08:08:21;98701.16;;;0.67;71.40
58223;BME280;44020;50.890;15.796;2023-04-03T08:10:49;98702.81;;;0.61;69.74
58223;BME280;44020;50.890;15.796;2023-04-03T08:13:17;98696.23;;;0.56;70.27
58223;BME280;44020;50.890;15.796;2023-04-03T08:15:44;98696.41;;;0.55;70.38
58223;BME280;44020;50.890;15.796;2023-04-03T08:18:12;98699.23;;;0.54;70.43
58223;BME280;44020;50.890;15.796;2023-04-03T08:20:39;98703.63;;;0.53;70.21
58223;BME280;44020;50.890;15.796;2023-04-03T08:23:07;98699.82;;;0.49;70.05
58223;BME280;44020;50.890;15.796;2023-04-03T08:25:39;98693.01;;;0.49;70.26
58223;BME280;44020;50.890;15.796;2023-04-03T08:28:07;98694.33;;;0.54;70.38
58223;BME280;44020;50.890;15.796;2023-04-03T08:30:34;98694.55;;;0.64;70.16
58223;BME280;44020;50.890;15.796;2023-04-03T08:33:01;98690.27;;;0.71;70.19
58223;BME280;44020;50.890;15.796;2023-04-03T08:35:28;98695.25;;;0.75;69.42
58223;BME280;44020;50.890;15.796;2023-04-03T08:37:56;98692.73;;;0.81;69.36
58223;BME280;44020;50.890;15.796;2023-04-03T08:40:23;98691.83;;;0.82;68.52
58223;BME280;44020;50.890;15.796;2023-04-03T08:42:54;98694.15;;;0.79;68.10
58223;BME280;44020;50.890;15.796;2023-04-03T08:45:37;98687.69;;;0.78;68.38
58223;BME280;44020;50.890;15.796;2023-04-03T08:48:15;98691.57;;;0.76;68.00
58223;BME280;44020;50.890;15.796;2023-04-03T08:50:45;98690.65;;;0.80;68.52
58223;BME280;44020;50.890;15.796;2023-04-03T08:53:25;98686.91;;;0.95;68.81
58223;BME280;44020;50.890;15.796;2023-04-03T08:55:55;98685.06;;;1.11;68.51
58223;BME280;44020;50.890;15.796;2023-04-03T08:58:33;98686.53;;;1.18;67.57
58223;BME280;44020;50.890;15.796;2023-04-03T09:01:16;98689.00;;;1.16;66.98
58223;BME280;44020;50.890;15.796;2023-04-03T09:03:45;98685.77;;;1.12;66.38
58223;BME280;44020;50.890;15.796;2023-04-03T09:06:13;98681.80;;;1.08;65.67
58223;BME280;44020;50.890;15.796;2023-04-03T09:14:15;98684.71;;;1.11;66.12
58223;BME280;44020;50.890;15.796;2023-04-03T09:16:56;98689.80;;;1.10;65.94
58223;BME280;44020;50.890;15.796;2023-04-03T09:24:29;98686.66;;;1.10;65.54
58223;BME280;44020;50.890;15.796;2023-04-03T09:27:00;98681.88;;;1.24;65.98
58223;BME280;44020;50.890;15.796;2023-04-03T09:29:29;98685.95;;;1.42;65.87
58223;BME280;44020;50.890;15.796;2023-04-03T09:31:58;98684.66;;;1.45;64.62
58223;BME280;44020;50.890;15.796;2023-04-03T09:34:27;98685.73;;;1.44;64.62
58223;BME280;44020;50.890;15.796;2023-04-03T09:36:55;98688.02;;;1.44;63.50
58223;BME280;44020;50.890;15.796;2023-04-03T09:39:24;98690.86;;;1.51;63.40
58223;BME280;44020;50.890;15.796;2023-04-03T09:41:56;98691.91;;;1.70;63.13
58223;BME280;44020;50.890;15.796;2023-04-03T09:44:24;98685.45;;;1.87;62.94
58223;BME280;44020;50.890;15.796;2023-04-03T09:46:52;98683.64;;;2.08;63.63
58223;BME280;44020;50.890;15.796;2023-04-03T09:49:19;98679.31;;;2.31;63.15
58223;BME280;44020;50.890;15.796;2023-04-03T09:51:46;98684.48;;;2.51;63.01
58223;BME280;44020;50.890;15.796;2023-04-03T09:54:31;98681.98;;;2.61;61.67
58223;BME280;44020;50.890;15.796;2023-04-03T09:57:03;98685.31;;;2.61;61.84
58223;BME280;44020;50.890;15.796;2023-04-03T09:59:32;98688.98;;;2.61;62.10
58223;BME280;44020;50.890;15.796;2023-04-03T10:02:03;98688.59;;;2.56;61.40
58223;BME280;44020;50.890;15.796;2023-04-03T10:04:43;98693.64;;;2.41;61.16
58223;BME280;44020;50.890;15.796;2023-04-03T10:07:32;98694.83;;;2.35;61.34
58223;BME280;44020;50.890;15.796;2023-04-03T10:09:59;98688.23;;;2.23;60.38
58223;BME280;44020;50.890;15.796;2023-04-03T10:12:28;98694.52;;;2.16;61.04
58223;BME280;44020;50.890;15.796;2023-04-03T10:14:56;98692.52;;;2.11;60.06
58223;BME280;44020;50.890;15.796;2023-04-03T10:17:31;98692.36;;;2.01;59.44
58223;BME280;44020;50.890;15.796;2023-04-03T10:23:01;98688.46;;;2.29;60.93
58223;BME280;44020;50.890;15.796;2023-04-03T10:30:32;98694.52;;;2.25;58.08
58223;BME280;44020;50.890;15.796;2023-04-03T10:35:44;98692.10;;;2.22;57.99
58223;BME280;44020;50.890;15.796;2023-04-03T10:46:00;98677.19;;;2.23;56.89
58223;BME280;44020;50.890;15.796;2023-04-03T10:48:39;98673.79;;;2.35;57.44
58223;BME280;44020;50.890;15.796;2023-04-03T10:54:00;98676.94;;;2.51;57.07
58223;BME280;44020;50.890;15.796;2023-04-03T10:56:35;98675.65;;;2.54;56.72
58223;BME280;44020;50.890;15.796;2023-04-03T11:01:41;98673.61;;;2.43;56.07
58223;BME280;44020;50.890;15.796;2023-04-03T11:04:09;98672.94;;;2.41;56.23
58223;BME280;44020;50.890;15.796;2023-04-03T11:06:39;98672.06;;;2.41;56.13
58223;BME280;44020;50.890;15.796;2023-04-03T11:09:18;98669.40;;;2.43;55.76
58223;BME280;44020;50.890;15.796;2023-04-03T11:11:47;98659.78;;;2.57;54.71
58223;BME280;44020;50.890;15.796;2023-04-03T11:14:24;98650.34;;;2.86;55.85
58223;BME280;44020;50.890;15.796;2023-04-03T11:17:09;98645.98;;;3.13;55.85
58223;BME280;44020;50.890;15.796;2023-04-03T11:19:42;98650.10;;;3.24;55.77
58223;BME280;44020;50.890;15.796;2023-04-03T11:22:16;98652.29;;;3.21;55.42
58223;BME280;44020;50.890;15.796;2023-04-03T11:24:46;98655.58;;;3.16;55.14
58223;BME280;44020;50.890;15.796;2023-04-03T11:27:19;98659.10;;;3.08;54.93
58223;BME280;44020;50.890;15.796;2023-04-03T11:29:49;98656.27;;;3.03;55.29
58223;BME280;44020;50.890;15.796;2023-04-03T11:32:26;98653.50;;;3.00;55.17
58223;BME280;44020;50.890;15.796;2023-04-03T11:34:58;98653.05;;;2.97;55.28
58223;BME280;44020;50.890;15.796;2023-04-03T11:39:56;98653.33;;;2.86;54.48
58223;BME280;44020;50.890;15.796;2023-04-03T11:47:45;98662.70;;;2.75;54.40
58223;BME280;44020;50.890;15.796;2023-04-03T11:50:38;98662.88;;;2.75;53.90
58223;BME280;44020;50.890;15.796;2023-04-03T11:55:42;98655.31;;;2.91;53.37
58223;BME280;44020;50.890;15.796;2023-04-03T11:58:11;98662.09;;;2.94;53.28
58223;BME280;44020;50.890;15.796;2023-04-03T12:00:50;98657.00;;;2.93;53.89
58223;BME280;44020;50.890;15.796;2023-04-03T12:08:46;98663.56;;;2.98;54.81
58223;BME280;44020;50.890;15.796;2023-04-03T12:21:17;98662.05;;;2.88;55.32
58223;BME280;44020;50.890;15.796;2023-04-03T12:26:26;98660.81;;;2.96;54.16
58223;BME280;44020;50.890;15.796;2023-04-03T12:28:54;98654.40;;;2.99;53.85
58223;BME280;44020;50.890;15.796;2023-04-03T12:31:22;98657.05;;;2.99;53.20
58223;BME280;44020;50.890;15.796;2023-04-03T12:39:10;98656.14;;;2.78;52.91
58223;BME280;44020;50.890;15.796;2023-04-03T12:41:51;98653.02;;;2.77;53.41
58223;BME280;44020;50.890;15.796;2023-04-03T12:44:40;98652.00;;;2.82;53.66
58223;BME280;44020;50.890;15.796;2023-04-03T12:47:27;98651.68;;;2.96;53.80
58223;BME280;44020;50.890;15.796;2023-04-03T12:49:55;98652.92;;;3.09;53.72
58223;BME280;44020;50.890;15.796;2023-04-03T12:52:29;98652.77;;;3.09;53.19
58223;BME280;44020;50.890;15.796;2023-04-03T12:54:58;98649.30;;;3.00;53.04
58223;BME280;44020;50.890;15.796;2023-04-03T12:57:26;98644.86;;;2.95;52.92
58223;BME280;44020;50.890;15.796;2023-04-03T12:59:54;98649.41;;;2.95;53.15
58223;BME280;44020;50.890;15.796;2023-04-03T13:04:51;98644.00;;;3.01;53.42
58223;BME280;44020;50.890;15.796;2023-04-03T13:07:54;98638.79;;;3.06;53.29
58223;BME280;44020;50.890;15.796;2023-04-03T13:10:14;98643.05;;;3.04;52.97
58223;BME280;44020;50.890;15.796;2023-04-03T13:12:47;98647.88;;;3.00;53.36
58223;BME280;44020;50.890;15.796;2023-04-03T13:15:18;98644.66;;;2.96;53.32
58223;BME280;44020;50.890;15.796;2023-04-03T13:17:46;98646.85;;;2.93;53.64
58223;BME280;44020;50.890;15.796;2023-04-03T13:20:20;98647.64;;;2.96;53.90
58223;BME280;44020;50.890;15.796;2023-04-03T13:22:49;98644.92;;;2.99;54.02
58223;BME280;44020;50.890;15.796;2023-04-03T13:25:19;98645.09;;;3.00;53.76
58223;BME280;44020;50.890;15.796;2023-04-03T13:27:48;98644.83;;;3.03;53.70
58223;BME280;44020;50.890;15.796;2023-04-03T13:30:29;98644.48;;;3.03;53.02
58223;BME280;44020;50.890;15.796;2023-04-03T13:32:58;98643.06;;;3.04;53.37
58223;BME280;44020;50.890;15.796;2023-04-03T13:35:32;98643.40;;;3.04;53.23
58223;BME280;44020;50.890;15.796;2023-04-03T13:38:05;98634.49;;;3.02;52.91
58223;BME280;44020;50.890;15.796;2023-04-03T13:40:33;98631.76;;;3.06;53.16
58223;BME280;44020;50.890;15.796;2023-04-03T13:43:02;98634.86;;;3.09;53.02
58223;BME280;44020;50.890;15.796;2023-04-03T13:45:30;98634.77;;;3.12;53.03
58223;BME280;44020;50.890;15.796;2023-04-03T13:48:16;98627.90;;;3.90;53.79
58223;BME280;44020;50.890;15.796;2023-04-03T13:51:19;98623.13;;;5.17;51.30
58223;BME280;44020;50.890;15.796;2023-04-03T13:53:51;98634.00;;;4.69;50.32
58223;BME280;44020;50.890;15.796;2023-04-03T14:01:24;98636.91;;;3.77;51.24
58223;BME280;44020;50.890;15.796;2023-04-03T14:03:54;98634.95;;;3.66;51.26
58223;BME280;44020;50.890;15.796;2023-04-03T14:06:22;98632.19;;;3.58;51.70
58223;BME280;44020;50.890;15.796;2023-04-03T14:08:50;98630.29;;;3.56;51.81
58223;BME280;44020;50.890;15.796;2023-04-03T14:11:19;98625.80;;;3.60;51.76
58223;BME280;44020;50.890;15.796;2023-04-03T14:13:47;98627.50;;;3.74;51.20
58223;BME280;44020;50.890;15.796;2023-04-03T14:16:17;98621.41;;;3.72;51.44
58223;BME280;44020;50.890;15.796;2023-04-03T14:18:46;98612.28;;;3.72;51.62
58223;BME280;44020;50.890;15.796;2023-04-03T14:21:13;98621.70;;;3.68;51.75
58223;BME280;44020;50.890;15.796;2023-04-03T14:23:42;98624.41;;;3.65;51.51
58223;BME280;44020;50.890;15.796;2023-04-03T14:26:13;98633.42;;;3.50;51.07
58223;BME280;44020;50.890;15.796;2023-04-03T14:28:43;98630.81;;;3.37;51.44
58223;BME280;44020;50.890;15.796;2023-04-03T14:31:10;98630.52;;;3.27;51.27
58223;BME280;44020;50.890;15.796;2023-04-03T14:33:38;98628.11;;;3.19;51.13